Time;durP1;ratioP1;P1;durP2;ratioP2;P2;SDS_P1;SDS_P2;PMS_P1;PMS_P2;Temp;Humidity;BMP_temperature;BMP_pressure;BME280_temperature;BME280_humidity;BME280_pressure;Samples;Min_cycle;Max_cycle;Signal;HPM_P1;HPM_P2
2022/06/11 00:00:16;;;;;;;16.73;5.10;;;15.60;99.90;;;;;;5047463;28;20113;-76
2022/06/11 00:02:41;;;;;;;19.13;5.97;;;15.60;99.90;;;;;;5035312;28;20041;-76
2022/06/11 00:05:07;;;;;;;11.82;4.05;;;15.70;99.90;;;;;;5034986;28;20091;-76
2022/06/11 00:07:34;;;;;;;15.05;4.57;;;15.80;99.90;;;;;;5035378;28;20041;-76
2022/06/11 00:10:00;;;;;;;14.98;5.00;;;15.80;99.90;;;;;;5039487;28;20063;-77
2022/06/11 00:12:26;;;;;;;7.65;3.78;;;15.90;99.90;;;;;;5054896;28;20041;-76
2022/06/11 00:14:53;;;;;;;14.30;5.82;;;15.90;99.90;;;;;;5054334;28;20053;-77
2022/06/11 00:17:21;;;;;;;9.05;3.70;;;15.90;99.90;;;;;;5054857;28;20470;-77
2022/06/11 00:19:47;;;;;;;8.18;3.50;;;15.80;99.90;;;;;;5052152;28;20049;-77
2022/06/11 00:22:15;;;;;;;9.00;3.70;;;15.70;99.90;;;;;;5035135;28;20038;-77
2022/06/11 00:24:40;;;;;;;9.55;3.38;;;15.60;99.90;;;;;;5034659;28;20052;-77
2022/06/11 00:27:07;;;;;;;9.25;3.47;;;15.50;99.90;;;;;;5034758;28;20042;-76
2022/06/11 00:29:34;;;;;;;12.05;3.30;;;15.40;99.90;;;;;;5034611;28;20037;-77
2022/06/11 00:32:00;;;;;;;9.98;4.03;;;15.40;99.90;;;;;;5054526;28;20037;-77
2022/06/11 00:34:26;;;;;;;8.38;3.25;;;15.30;99.90;;;;;;5054408;28;20402;-76
2022/06/11 00:36:52;;;;;;;10.02;3.22;;;15.30;99.90;;;;;;5054339;28;20421;-77
2022/06/11 00:39:21;;;;;;;7.75;2.80;;;15.30;99.90;;;;;;5054620;28;20047;-77
2022/06/11 00:41:50;;;;;;;8.27;2.75;;;15.20;99.90;;;;;;5035618;28;20030;-77
2022/06/11 00:44:16;;;;;;;7.80;2.38;;;15.60;99.90;;;;;;5034117;28;20141;-76
2022/06/11 00:46:41;;;;;;;6.63;2.25;;;15.30;99.90;;;;;;5034262;28;20410;-76
2022/06/11 00:49:38;;;;;;;8.65;2.97;;;15.30;99.90;;;;;;5034066;28;20053;-77
2022/06/11 00:52:22;;;;;;;9.27;2.30;;;15.30;99.90;;;;;;5034062;28;20037;-77
2022/06/11 00:55:15;;;;;;;10.18;3.17;;;15.20;99.90;;;;;;5034141;28;20046;-77
2022/06/11 00:57:55;;;;;;;10.65;2.33;;;15.20;99.90;;;;;;5027989;28;20057;-77
2022/06/11 01:00:30;;;;;;;6.03;2.15;;;15.20;99.90;;;;;;5034002;28;20585;-77
2022/06/11 01:02:57;;;;;;;7.73;1.90;;;15.20;99.90;;;;;;5033928;28;20054;-77
2022/06/11 01:05:32;;;;;;;11.65;3.05;;;15.20;99.90;;;;;;5033377;28;20549;-77
2022/06/11 01:07:58;;;;;;;9.95;3.08;;;15.20;99.90;;;;;;5033820;28;20045;-77
2022/06/11 01:11:00;;;;;;;9.60;2.03;;;15.10;99.90;;;;;;5043410;28;20489;-77
2022/06/11 01:13:49;;;;;;;8.35;1.65;;;15.10;99.90;;;;;;5053612;28;20120;-77
2022/06/11 01:16:48;;;;;;;8.32;2.20;;;14.90;99.90;;;;;;5053612;28;20051;-77
2022/06/11 01:19:38;;;;;;;7.18;1.80;;;14.80;99.90;;;;;;5053174;28;20049;-78
2022/06/11 01:22:07;;;;;;;12.65;2.10;;;14.80;99.90;;;;;;5045850;28;20037;-77
2022/06/11 01:24:47;;;;;;;11.15;2.72;;;14.60;99.90;;;;;;5033488;28;20046;-77
2022/06/11 01:27:40;;;;;;;8.40;2.00;;;14.50;99.90;;;;;;5032676;28;20041;-77
2022/06/11 01:30:12;;;;;;;8.85;2.28;;;14.40;99.90;;;;;;5039990;28;20091;-77
2022/06/11 01:32:45;;;;;;;9.98;2.30;;;14.20;99.90;;;;;;5053264;28;20044;-77
2022/06/11 01:35:45;;;;;;;8.98;2.20;;;14.10;99.90;;;;;;5053013;28;20033;-77
2022/06/11 01:38:20;;;;;;;12.55;2.97;;;14.00;99.90;;;;;;5035487;28;20045;-78
2022/06/11 01:41:11;;;;;;;7.80;2.33;;;13.90;99.90;;;;;;5044865;28;20055;-77
2022/06/11 01:43:40;;;;;;;8.55;2.30;;;13.80;99.90;;;;;;5053537;28;20048;-77
2022/06/11 01:46:17;;;;;;;15.90;2.80;;;13.70;99.90;;;;;;5053283;28;20047;-77
2022/06/11 01:48:54;;;;;;;8.95;2.72;;;13.60;99.90;;;;;;5053312;28;20123;-77
2022/06/11 01:51:51;;;;;;;9.88;2.47;;;13.60;99.90;;;;;;5036931;28;20123;-75
2022/06/11 01:54:35;;;;;;;;;;;13.40;99.90;;;;;;5033735;28;20401;-75
2022/06/11 01:57:28;;;;;;;10.88;2.22;;;13.30;99.90;;;;;;5121667;22;19928;-89
2022/06/11 02:00:13;;;;;;;10.43;2.28;;;13.30;99.90;;;;;;5059046;28;20404;-91
2022/06/11 02:02:44;;;;;;;8.40;2.50;;;13.30;99.90;;;;;;5068067;28;20040;-91
2022/06/11 02:05:15;;;;;;;9.85;2.70;;;13.30;99.90;;;;;;5084952;28;20045;-91
2022/06/11 02:07:58;;;;;;;8.10;2.20;;;13.30;99.90;;;;;;5061192;28;20049;-91
2022/06/11 02:10:34;;;;;;;9.02;2.40;;;13.40;99.90;;;;;;5058745;28;20059;-89
2022/06/11 02:13:21;;;;;;;10.45;2.60;;;13.50;99.90;;;;;;5083082;28;20045;-89
2022/06/11 02:15:57;;;;;;;7.82;2.30;;;13.60;99.90;;;;;;5081102;28;20041;-89
2022/06/11 02:18:24;;;;;;;11.25;2.75;;;14.00;99.90;;;;;;5081860;28;20060;-88
2022/06/11 02:20:57;;;;;;;11.13;3.47;;;13.40;99.90;;;;;;5065438;28;20037;-89
2022/06/11 02:23:32;;;;;;;10.88;2.38;;;13.20;99.90;;;;;;5043642;28;20048;-87
2022/06/11 02:26:02;;;;;;;10.73;3.20;;;13.00;99.90;;;;;;5079303;28;20068;-88
2022/06/11 02:28:33;;;;;;;9.27;2.78;;;12.90;99.90;;;;;;5082503;28;20062;-87
2022/06/11 02:31:05;;;;;;;8.98;2.97;;;12.70;99.90;;;;;;5078978;28;20408;-88
2022/06/11 02:33:34;;;;;;;11.70;3.42;;;12.60;99.90;;;;;;5065372;28;20048;-90
2022/06/11 02:36:15;;;;;;;18.98;4.97;;;12.60;99.90;;;;;;5081932;28;20040;-89
2022/06/11 02:38:41;;;;;;;10.15;3.67;;;12.70;99.90;;;;;;5083561;28;20063;-88
2022/06/11 02:41:11;;;;;;;10.20;2.75;;;13.30;99.90;;;;;;5066720;28;20033;-89
2022/06/11 02:43:37;;;;;;;14.23;3.67;;;12.70;99.90;;;;;;5047850;28;20082;-88
2022/06/11 02:46:41;;;;;;;10.68;3.50;;;12.50;99.90;;;;;;5047750;28;20041;-89
2022/06/11 02:48:52;;;;;;;9.32;3.88;;;12.50;99.90;;;;;;5051343;28;20459;-89
2022/06/11 02:51:19;;;;;;;13.00;3.45;;;12.60;99.90;;;;;;5084960;28;20040;-88
2022/06/11 02:53:44;;;;;;;16.95;4.13;;;12.70;99.90;;;;;;5085092;28;20037;-89
2022/06/11 02:56:11;;;;;;;15.27;5.07;;;12.80;99.90;;;;;;5085141;28;20074;-89
2022/06/11 02:58:37;;;;;;;15.85;5.43;;;12.80;99.90;;;;;;5084918;28;20465;-89
2022/06/11 03:01:03;;;;;;;12.20;4.28;;;12.80;99.90;;;;;;5089027;28;20064;-89
2022/06/11 03:03:29;;;;;;;11.07;3.95;;;13.40;99.90;;;;;;5086263;28;20044;-90
2022/06/11 03:05:54;;;;;;;17.38;4.50;;;12.70;99.90;;;;;;5096106;28;20039;-89
2022/06/11 03:08:21;;;;;;;15.02;4.82;;;12.70;99.90;;;;;;5086010;28;20092;-89
2022/06/11 03:10:54;;;;;;;14.50;5.25;;;12.70;99.90;;;;;;5086873;28;20068;-90
2022/06/11 03:13:20;;;;;;;14.38;5.18;;;13.50;99.90;;;;;;5096528;28;20052;-89
2022/06/11 03:15:46;;;;;;;17.38;5.55;;;12.60;99.90;;;;;;5103840;28;20132;-89
2022/06/11 03:18:13;;;;;;;22.15;6.70;;;13.10;99.90;;;;;;5104687;28;20048;-88
2022/06/11 03:20:39;;;;;;;13.73;5.45;;;12.80;99.90;;;;;;5090480;28;20043;-89
2022/06/11 03:23:06;;;;;;;14.73;5.88;;;12.80;99.90;;;;;;5066667;28;20056;-89
2022/06/11 03:25:32;;;;;;;15.27;6.38;;;12.90;99.90;;;;;;5086038;28;20126;-89
2022/06/11 03:27:58;;;;;;;14.50;5.90;;;13.80;99.90;;;;;;5084817;28;20045;-89
2022/06/11 03:30:25;;;;;;;15.63;6.00;;;13.00;99.90;;;;;;5083630;28;20041;-90
2022/06/11 03:32:51;;;;;;;16.95;6.70;;;13.10;99.90;;;;;;5084279;28;20068;-88
2022/06/11 03:35:16;;;;;;;14.68;6.13;;;14.10;99.90;;;;;;5098144;28;20054;-89
2022/06/11 03:37:42;;;;;;;13.43;5.55;;;13.00;99.90;;;;;;5087106;28;20399;-88
2022/06/11 03:40:09;;;;;;;18.95;5.72;;;13.10;99.90;;;;;;5096646;28;20032;-89
2022/06/11 03:42:35;;;;;;;17.42;5.15;;;13.20;99.90;;;;;;5049210;28;20051;-89
2022/06/11 03:45:01;;;;;;;18.55;5.85;;;13.30;99.90;;;;;;5084284;28;20107;-90
2022/06/11 03:47:27;;;;;;;22.52;5.75;;;13.30;99.90;;;;;;5066892;28;20040;-89
2022/06/11 03:49:53;;;;;;;19.05;5.20;;;13.40;99.90;;;;;;5064233;28;20051;-89
2022/06/11 03:52:18;;;;;;;18.98;5.00;;;13.40;99.90;;;;;;5083491;28;20036;-89
2022/06/11 03:54:44;;;;;;;12.35;4.93;;;14.20;99.90;;;;;;5083278;28;20086;-89
2022/06/11 03:57:10;;;;;;;19.85;5.07;;;13.70;99.90;;;;;;5083585;28;20052;-88
2022/06/11 03:59:35;;;;;;;11.85;4.78;;;13.80;99.90;;;;;;5083131;28;20098;-89
2022/06/11 04:02:01;;;;;;;17.60;5.47;;;14.00;99.90;;;;;;5082739;28;20116;-89
2022/06/11 04:04:27;;;;;;;19.52;4.80;;;14.30;99.90;;;;;;5083323;28;20056;-88
2022/06/11 04:06:56;;;;;;;15.55;5.47;;;15.60;99.90;;;;;;5094548;28;20028;-89
2022/06/11 04:09:32;;;;;;;19.25;4.85;;;14.60;99.90;;;;;;5085819;28;20036;-89
2022/06/11 04:11:59;;;;;;;13.05;3.90;;;14.60;99.90;;;;;;5085528;28;20091;-89
2022/06/11 04:14:25;;;;;;;12.65;4.00;;;14.50;99.90;;;;;;5085475;28;20048;-89
2022/06/11 04:16:58;;;;;;;19.90;4.82;;;14.60;99.90;;;;;;5093595;28;20075;-87
2022/06/11 04:19:28;;;;;;;11.57;4.03;;;15.50;99.90;;;;;;5083077;28;20028;-89
2022/06/11 04:21:55;;;;;;;15.25;3.80;;;14.60;99.90;;;;;;5083588;28;20052;-89
2022/06/11 04:24:21;;;;;;;19.23;4.63;;;15.60;99.90;;;;;;5082779;28;20446;-89
2022/06/11 04:26:51;;;;;;;18.08;4.55;;;14.60;99.90;;;;;;5102789;28;20039;-89
2022/06/11 04:29:19;;;;;;;18.52;6.35;;;14.70;99.90;;;;;;5102761;28;20047;-89
2022/06/11 04:31:47;;;;;;;19.02;6.03;;;14.70;99.90;;;;;;5103373;28;20102;-89
2022/06/11 04:34:14;;;;;;;13.88;7.13;;;14.80;99.90;;;;;;5102886;28;20040;-88
2022/06/11 04:36:42;;;;;;;13.35;8.18;;;14.90;99.90;;;;;;5084901;28;20039;-89
2022/06/11 04:39:09;;;;;;;14.35;8.00;;;14.90;99.90;;;;;;5103073;28;20032;-89
2022/06/11 04:41:35;;;;;;;21.38;8.90;;;15.40;99.90;;;;;;5101539;28;20127;-89
2022/06/11 04:44:01;;;;;;;22.48;10.15;;;15.00;99.90;;;;;;5103165;28;20029;-88
2022/06/11 04:46:27;;;;;;;19.15;9.55;;;15.00;99.90;;;;;;5103154;28;20043;-89
2022/06/11 04:48:52;;;;;;;19.67;8.13;;;15.30;99.90;;;;;;5098555;28;20064;-88
2022/06/11 04:51:18;;;;;;;14.18;7.43;;;15.90;99.90;;;;;;5047770;28;20036;-88
2022/06/11 04:53:44;;;;;;;15.13;7.32;;;16.60;99.90;;;;;;5064566;28;20557;-88
2022/06/11 04:56:17;;;;;;;15.70;5.88;;;18.00;99.90;;;;;;5085816;28;20050;-87
2022/06/11 04:58:44;;;;;;;13.38;5.10;;;18.50;99.90;;;;;;5098345;28;20135;-88
2022/06/11 05:01:10;;;;;;;12.90;4.78;;;18.20;99.90;;;;;;5075595;28;20067;-87
2022/06/11 05:03:36;;;;;;;13.10;4.40;;;18.60;99.90;;;;;;5103411;28;20047;-88
2022/06/11 05:06:03;;;;;;;13.90;4.28;;;18.80;99.90;;;;;;5102822;28;20032;-87
2022/06/11 05:08:28;;;;;;;15.88;4.00;;;19.00;99.90;;;;;;5102285;28;20042;-88
2022/06/11 05:10:54;;;;;;;14.55;4.40;;;19.30;99.90;;;;;;5102000;28;20115;-88
2022/06/11 05:13:20;;;;;;;13.02;4.07;;;19.60;99.90;;;;;;5102311;28;20068;-87
2022/06/11 05:15:50;;;;;;;14.63;3.88;;;19.70;99.90;;;;;;5084372;28;20048;-88
2022/06/11 05:18:17;;;;;;;12.85;3.92;;;20.00;99.90;;;;;;5083133;28;20107;-87
2022/06/11 05:20:44;;;;;;;12.43;3.70;;;20.00;99.90;;;;;;5089377;28;20048;-87
2022/06/11 05:23:10;;;;;;;15.48;3.67;;;20.20;99.90;;;;;;5063708;28;20047;-87
2022/06/11 05:25:38;;;;;;;11.45;3.58;;;20.10;99.90;;;;;;5082032;28;20044;-88
2022/06/11 05:28:06;;;;;;;11.23;3.88;;;20.20;99.90;;;;;;5081390;28;20048;-88
2022/06/11 05:30:33;;;;;;;15.40;3.85;;;20.10;99.90;;;;;;5081236;28;20040;-87
2022/06/11 05:33:00;;;;;;;12.20;3.55;;;20.30;99.90;;;;;;5046474;28;20046;-87
2022/06/11 05:35:29;;;;;;;12.40;4.28;;;20.30;99.90;;;;;;5063514;28;20111;-87
2022/06/11 05:37:57;;;;;;;14.82;4.05;;;20.60;99.90;;;;;;5083168;28;20051;-87
2022/06/11 05:40:27;;;;;;;12.75;3.42;;;20.20;99.90;;;;;;5090435;28;20028;-87
2022/06/11 05:42:53;;;;;;;16.10;4.15;;;20.40;98.10;;;;;;5089357;28;20051;-87
2022/06/11 05:45:24;;;;;;;20.73;5.82;;;20.60;95.20;;;;;;5063882;28;20048;-87
2022/06/11 05:47:54;;;;;;;16.15;3.90;;;21.00;90.30;;;;;;5080727;28;20072;-87
2022/06/11 05:50:25;;;;;;;15.65;4.43;;;21.10;88.60;;;;;;5098108;28;20046;-87
2022/06/11 05:52:53;;;;;;;15.40;4.05;;;20.60;88.20;;;;;;5101951;28;20056;-87
2022/06/11 05:55:22;;;;;;;15.98;3.63;;;20.60;89.60;;;;;;5079766;28;20058;-87
2022/06/11 05:57:50;;;;;;;17.92;3.97;;;20.90;83.10;;;;;;5083076;28;20113;-87
2022/06/11 06:00:19;;;;;;;17.50;4.03;;;21.10;76.10;;;;;;5081411;28;20040;-87
2022/06/11 06:02:45;;;;;;;18.83;5.28;;;21.10;78.20;;;;;;5094911;28;20061;-87
2022/06/11 06:05:14;;;;;;;16.02;4.65;;;21.30;71.00;;;;;;5095616;28;20126;-87
2022/06/11 06:07:40;;;;;;;16.50;4.70;;;21.40;69.70;;;;;;5066675;28;20178;-87
2022/06/11 06:10:06;;;;;;;16.38;3.35;;;22.20;64.00;;;;;;5061073;28;20044;-87
2022/06/11 06:12:33;;;;;;;16.52;3.33;;;21.50;63.20;;;;;;5094706;28;20048;-87
2022/06/11 06:15:09;;;;;;;15.90;3.75;;;21.80;62.70;;;;;;5094792;28;20032;-87
2022/06/11 06:17:38;;;;;;;20.05;3.80;;;22.10;58.70;;;;;;5081385;28;20080;-88
2022/06/11 06:20:05;;;;;;;15.10;4.40;;;22.30;52.90;;;;;;5074849;28;20040;-87
2022/06/11 06:22:31;;;;;;;14.35;3.95;;;22.60;48.10;;;;;;5075083;28;20037;-87
2022/06/11 06:24:56;;;;;;;20.52;4.45;;;22.20;45.20;;;;;;5075601;28;20047;-88
2022/06/11 06:27:22;;;;;;;14.50;4.20;;;22.20;48.90;;;;;;5075809;28;20123;-88
2022/06/11 06:29:48;;;;;;;18.63;4.55;;;22.70;53.00;;;;;;5074946;28;20115;-87
2022/06/11 06:32:14;;;;;;;16.23;3.65;;;22.30;53.50;;;;;;5040277;28;20044;-87
2022/06/11 06:34:39;;;;;;;14.85;3.90;;;23.00;48.60;;;;;;5076065;28;20408;-87
2022/06/11 06:37:05;;;;;;;20.40;4.50;;;22.90;45.10;;;;;;5065408;28;20044;-87
2022/06/11 06:39:32;;;;;;;23.90;4.82;;;23.20;36.90;;;;;;5096582;28;20374;-88
2022/06/11 06:41:58;;;;;;;17.63;4.18;;;22.80;37.20;;;;;;5059848;28;20052;-88
2022/06/11 06:44:23;;;;;;;22.63;4.38;;;23.00;37.70;;;;;;5057301;28;20067;-87
2022/06/11 06:46:49;;;;;;;19.33;5.55;;;22.00;47.10;;;;;;5046889;28;20043;-87
2022/06/11 06:49:15;;;;;;;15.35;4.65;;;22.20;48.60;;;;;;5094211;28;20040;-87
2022/06/11 06:51:40;;;;;;;16.60;5.68;;;22.30;46.80;;;;;;5094959;28;20047;-87
2022/06/11 06:54:06;;;;;;;17.85;3.97;;;22.50;45.40;;;;;;5094863;28;20106;-88
2022/06/11 06:56:33;;;;;;;22.60;5.68;;;22.50;42.40;;;;;;5094327;28;20047;-86
2022/06/11 06:59:04;;;;;;;16.60;3.72;;;22.40;42.80;;;;;;5094618;28;20051;-88
2022/06/11 07:01:30;;;;;;;21.38;4.28;;;23.00;37.70;;;;;;5076713;28;20062;-86
2022/06/11 07:03:57;;;;;;;14.85;4.18;;;23.30;31.40;;;;;;5075472;28;20044;-87
2022/06/11 07:06:24;;;;;;;28.33;5.55;;;23.50;30.40;;;;;;5074126;28;20508;-82
2022/06/11 07:08:51;;;;;;;16.88;4.47;;;23.80;26.30;;;;;;5075835;28;20041;-84
2022/06/11 07:11:18;;;;;;;17.20;4.03;;;24.20;23.60;;;;;;5083790;28;20048;-82
2022/06/11 07:13:43;;;;;;;25.80;5.32;;;24.30;16.90;;;;;;5069683;28;20065;-83
2022/06/11 07:16:10;;;;;;;19.38;4.43;;;24.40;17.40;;;;;;5090190;28;20044;-87
2022/06/11 07:18:44;;;;;;;19.33;4.97;;;24.80;12.50;;;;;;5039126;28;20076;-86
2022/06/11 07:21:19;;;;;;;19.83;4.55;;;25.10;10.60;;;;;;5065412;28;20051;-86
2022/06/11 07:23:50;;;;;;;15.88;3.65;;;25.20;2.80;;;;;;5093103;28;20523;-87
2022/06/11 07:26:19;;;;;;;17.08;4.60;;;25.30;2.60;;;;;;5073598;28;20428;-86
2022/06/11 07:28:58;;;;;;;21.80;4.63;;;25.00;1.00;;;;;;5074289;28;20413;-86
2022/06/11 07:31:24;;;;;;;20.98;4.60;;;25.40;2.20;;;;;;5049644;28;20327;-87
2022/06/11 07:33:50;;;;;;;27.88;5.50;;;26.00;1.00;;;;;;5075449;28;20067;-86
2022/06/11 07:36:18;;;;;;;22.75;4.53;;;26.20;1.00;;;;;;5095301;28;20047;-87
2022/06/11 07:38:43;;;;;;;20.52;5.18;;;26.30;1.00;;;;;;5096770;28;20504;-87
2022/06/11 07:41:09;;;;;;;18.13;4.50;;;26.30;1.00;;;;;;5095161;28;20040;-86
2022/06/11 07:43:34;;;;;;;17.88;4.85;;;25.80;1.00;;;;;;5095235;28;20044;-87
2022/06/11 07:46:00;;;;;;;21.52;5.65;;;25.40;1.00;;;;;;5095216;28;20040;-87
2022/06/11 07:48:27;;;;;;;20.10;4.60;;;25.20;1.00;;;;;;5093828;28;20534;-87
2022/06/11 07:50:54;;;;;;;19.70;5.15;;;25.00;1.00;;;;;;5085570;28;20086;-88
2022/06/11 07:53:21;;;;;;;21.23;5.47;;;25.70;1.00;;;;;;5074554;28;20041;-87
2022/06/11 07:55:49;;;;;;;17.83;5.07;;;26.60;1.00;;;;;;5073852;28;20036;-87
2022/06/11 07:58:17;;;;;;;16.95;4.22;;;25.30;1.00;;;;;;5074184;28;20445;-87
2022/06/11 08:00:46;;;;;;;23.70;5.65;;;25.50;1.00;;;;;;5093836;28;20164;-87
2022/06/11 08:03:12;;;;;;;17.30;4.20;;;25.70;1.00;;;;;;5075681;28;20090;-87
2022/06/11 08:05:38;;;;;;;21.38;4.53;;;25.50;1.00;;;;;;5075305;28;20075;-87
2022/06/11 08:08:07;;;;;;;19.90;4.47;;;25.20;1.00;;;;;;5094236;28;20093;-87
2022/06/11 08:10:34;;;;;;;16.17;5.32;;;25.20;1.00;;;;;;5058627;28;20052;-88
2022/06/11 08:13:00;;;;;;;16.27;4.70;;;25.10;1.00;;;;;;5093622;28;20048;-87
2022/06/11 08:15:25;;;;;;;21.98;5.05;;;24.80;1.00;;;;;;5075611;28;20048;-87
2022/06/11 08:17:52;;;;;;;20.67;5.47;;;24.80;1.00;;;;;;5092838;28;20047;-87
2022/06/11 08:20:30;;;;;;;20.15;4.63;;;25.50;1.00;;;;;;5091994;28;20056;-87
2022/06/11 08:22:56;;;;;;;20.08;4.63;;;26.10;1.00;;;;;;5067922;28;20147;-87
2022/06/11 08:25:23;;;;;;;16.75;4.35;;;26.00;1.00;;;;;;5092910;28;20054;-87
2022/06/11 08:27:49;;;;;;;18.33;4.10;;;26.30;1.00;;;;;;5092282;28;20035;-86
2022/06/11 08:30:18;;;;;;;14.32;4.55;;;26.10;1.00;;;;;;5093255;28;20080;-87
2022/06/11 08:32:45;;;;;;;21.88;5.30;;;25.80;1.00;;;;;;5074212;28;20049;-87
2022/06/11 08:35:11;;;;;;;21.80;4.53;;;25.70;1.00;;;;;;5073528;28;20558;-88
2022/06/11 08:37:37;;;;;;;20.17;3.88;;;26.10;1.00;;;;;;5074352;28;20044;-87
2022/06/11 08:40:06;;;;;;;17.95;4.43;;;26.70;1.00;;;;;;5072784;28;20070;-87
2022/06/11 08:42:36;;;;;;;16.95;4.22;;;27.30;1.00;;;;;;5078107;28;20041;-87
2022/06/11 08:45:26;;;;;;;17.73;4.95;;;27.50;1.00;;;;;;5073161;28;20045;-87
2022/06/11 08:47:57;;;;;;;18.73;4.28;;;27.40;1.00;;;;;;5088113;28;20537;-87
2022/06/11 08:50:32;;;;;;;19.05;4.05;;;27.30;1.00;;;;;;5091875;28;20498;-87
2022/06/11 08:52:59;;;;;;;27.60;5.57;;;27.40;1.00;;;;;;5092675;28;20495;-87
2022/06/11 08:55:32;;;;;;;16.65;4.15;;;27.50;1.00;;;;;;5092669;28;20133;-87
2022/06/11 08:58:25;;;;;;;22.35;5.28;;;26.90;1.00;;;;;;5076870;28;20056;-84
2022/06/11 09:01:11;;;;;;;19.92;4.57;;;26.60;1.00;;;;;;5073704;28;20040;-88
2022/06/11 09:06:30;;;;;;;17.85;3.95;;;25.40;1.00;;;;;;4331942;22;20457;-87
2022/06/11 09:09:13;;;;;;;21.75;5.85;;;25.30;1.00;;;;;;5073644;28;20246;-87
2022/06/11 09:12:14;;;;;;;20.55;4.10;;;25.20;1.00;;;;;;5073471;28;20075;-87
2022/06/11 09:14:52;;;;;;;17.90;4.53;;;25.60;1.00;;;;;;5073394;28;20428;-86
2022/06/11 09:17:35;;;;;;;17.27;4.32;;;25.90;1.00;;;;;;5078420;28;20037;-87
2022/06/11 09:20:28;;;;;;;22.42;4.82;;;25.60;1.00;;;;;;5077939;28;20041;-86
2022/06/11 09:23:24;;;;;;;22.83;5.03;;;26.40;1.00;;;;;;5079326;28;20532;-87
2022/06/11 09:26:35;;;;;;;20.67;4.53;;;27.00;1.00;;;;;;5078294;28;20048;-87
2022/06/11 09:29:29;;;;;;;15.13;4.18;;;27.60;1.00;;;;;;5070936;28;20059;-87
2022/06/11 09:32:11;;;;;;;19.17;4.30;;;27.50;1.00;;;;;;5080386;28;20048;-87
2022/06/11 09:34:48;;;;;;;15.35;4.30;;;26.40;1.00;;;;;;5079445;28;20040;-87
2022/06/11 09:37:15;;;;;;;18.52;4.22;;;25.80;1.00;;;;;;5080375;28;20401;-86
2022/06/11 09:40:18;;;;;;;17.45;4.80;;;26.10;1.00;;;;;;5080119;28;20079;-86
2022/06/11 09:43:02;;;;;;;20.90;4.88;;;26.80;1.00;;;;;;5079665;28;20041;-87
2022/06/11 09:45:33;;;;;;;16.58;4.53;;;27.60;1.00;;;;;;5079426;28;20049;-86
2022/06/11 09:48:36;;;;;;;20.70;3.72;;;28.10;1.00;;;;;;5079479;28;20044;-87
2022/06/11 09:51:26;;;;;;;21.35;3.70;;;27.60;1.00;;;;;;5067280;28;20118;-87
2022/06/11 09:54:03;;;;;;;14.40;3.78;;;27.30;1.00;;;;;;5079340;28;20041;-86
2022/06/11 09:56:57;;;;;;;14.95;3.40;;;27.00;1.00;;;;;;5079726;28;20497;-87
2022/06/11 09:59:44;;;;;;;15.30;3.95;;;26.60;1.00;;;;;;5079787;28;20107;-84
2022/06/11 10:02:39;;;;;;;18.25;4.15;;;26.40;1.00;;;;;;5078721;28;20052;-82
2022/06/11 10:05:17;;;;;;;14.18;3.30;;;26.30;1.00;;;;;;5061833;28;20053;-89
2022/06/11 10:07:49;;;;;;;14.60;3.08;;;26.00;1.00;;;;;;5063267;28;20049;-91
2022/06/11 10:10:31;;;;;;;16.10;3.92;;;25.70;1.00;;;;;;5062581;28;20049;-86
2022/06/11 10:13:13;;;;;;;13.13;3.65;;;25.80;1.00;;;;;;5060001;28;20049;-89
2022/06/11 10:15:42;;;;;;;21.25;4.15;;;25.90;1.00;;;;;;5055526;28;20045;-81
2022/06/11 10:18:17;;;;;;;20.02;3.60;;;26.20;1.00;;;;;;5053724;28;20049;-85
2022/06/11 10:20:50;;;;;;;16.30;4.28;;;26.40;1.00;;;;;;5053770;28;20102;-85
2022/06/11 10:23:45;;;;;;;15.88;3.17;;;26.70;1.00;;;;;;5054371;28;20037;-85
2022/06/11 10:26:18;;;;;;;17.27;4.20;;;26.30;1.00;;;;;;5059268;28;20519;-84
2022/06/11 10:29:13;;;;;;;15.38;3.03;;;26.10;1.00;;;;;;5041722;28;20045;-87
2022/06/11 10:31:45;;;;;;;18.02;3.30;;;25.80;1.00;;;;;;5034927;28;20057;-84
2022/06/11 10:34:22;;;;;;;15.75;3.72;;;25.90;1.00;;;;;;5034475;28;20057;-83
2022/06/11 10:37:01;;;;;;;11.52;2.90;;;26.00;1.00;;;;;;5033985;28;20099;-82
2022/06/11 10:39:35;;;;;;;12.50;3.50;;;26.00;1.00;;;;;;5038490;28;20052;-88
2022/06/11 10:42:06;;;;;;;11.02;2.30;;;26.30;1.00;;;;;;5037100;28;20045;-84
2022/06/11 10:44:44;;;;;;;11.65;2.55;;;26.20;1.00;;;;;;5047155;28;20053;-83
2022/06/11 10:47:32;;;;;;;11.10;3.17;;;25.80;1.00;;;;;;5056076;28;20086;-83
2022/06/11 10:50:03;;;;;;;11.07;3.13;;;25.50;1.00;;;;;;5056836;28;20551;-83
2022/06/11 10:52:57;;;;;;;15.32;3.15;;;25.20;1.00;;;;;;5055332;28;20052;-84
2022/06/11 10:55:50;;;;;;;10.63;2.90;;;25.10;1.00;;;;;;5039228;28;20045;-83
2022/06/11 10:58:28;;;;;;;13.43;3.17;;;25.10;1.00;;;;;;5036667;28;20050;-83
2022/06/11 11:00:58;;;;;;;11.75;2.85;;;24.80;1.00;;;;;;5038593;28;20037;-83
2022/06/11 11:03:34;;;;;;;12.98;2.78;;;25.20;1.00;;;;;;5039714;28;20049;-84
2022/06/11 11:06:01;;;;;;;12.27;2.67;;;25.00;1.00;;;;;;5050851;28;20124;-83
2022/06/11 11:08:27;;;;;;;23.73;4.03;;;25.30;1.00;;;;;;5058524;28;20071;-84
2022/06/11 11:10:56;;;;;;;14.35;3.67;;;25.60;1.00;;;;;;5061189;28;20049;-84
2022/06/11 11:13:24;;;;;;;13.45;2.97;;;25.70;1.00;;;;;;5079823;28;20120;-84
2022/06/11 11:16:22;;;;;;;11.00;2.72;;;26.10;1.00;;;;;;5077182;28;20158;-84
2022/06/11 11:19:03;;;;;;;12.98;2.50;;;26.60;1.00;;;;;;5079699;28;20087;-84
2022/06/11 11:22:07;;;;;;;11.02;2.50;;;27.10;1.00;;;;;;5075967;28;20507;-84
2022/06/11 11:24:35;;;;;;;12.38;2.85;;;27.60;1.00;;;;;;5060304;28;20049;-84
2022/06/11 11:27:13;;;;;;;19.13;3.47;;;27.30;1.00;;;;;;5060053;28;20478;-83
2022/06/11 11:29:49;;;;;;;10.35;2.88;;;27.50;1.00;;;;;;5058222;28;20521;-84
2022/06/11 11:32:37;;;;;;;13.82;2.95;;;27.00;1.00;;;;;;5059073;28;20068;-84
2022/06/11 11:35:23;;;;;;;12.38;2.97;;;27.20;1.00;;;;;;5057685;28;20053;-84
2022/06/11 11:38:01;;;;;;;11.43;2.55;;;27.90;1.00;;;;;;5059212;28;20049;-83
2022/06/11 11:40:27;;;;;;;12.05;3.03;;;28.30;1.00;;;;;;5060699;28;20106;-84
2022/06/11 11:42:56;;;;;;;15.55;2.95;;;28.60;1.00;;;;;;5061114;28;20041;-84
2022/06/11 11:45:26;;;;;;;14.13;2.58;;;29.30;1.00;;;;;;5059587;28;20094;-84
2022/06/11 11:48:00;;;;;;;14.48;3.58;;;29.30;1.00;;;;;;5060589;28;20186;-84
2022/06/11 11:50:36;;;;;;;12.63;2.75;;;29.40;1.00;;;;;;5057663;28;20515;-84
2022/06/11 11:53:13;;;;;;;12.35;2.83;;;29.30;1.00;;;;;;5073988;28;20047;-84
2022/06/11 11:55:42;;;;;;;12.27;2.95;;;29.10;1.00;;;;;;5081146;28;20093;-84
2022/06/11 11:58:21;;;;;;;13.75;2.75;;;28.60;1.00;;;;;;5080445;28;20403;-83
2022/06/11 12:01:00;;;;;;;16.77;3.72;;;28.20;1.00;;;;;;5077734;28;20132;-84
2022/06/11 12:03:34;;;;;;;14.27;4.22;;;28.30;1.00;;;;;;5059129;28;20063;-84
2022/06/11 12:06:03;;;;;;;11.93;2.33;;;28.40;1.00;;;;;;5069420;28;20052;-83
2022/06/11 12:08:40;;;;;;;14.80;3.53;;;28.70;1.00;;;;;;5077490;28;20061;-84
2022/06/11 12:11:06;;;;;;;12.85;2.83;;;28.60;1.00;;;;;;5076935;28;20041;-84
2022/06/11 12:13:46;;;;;;;10.77;2.80;;;28.50;1.00;;;;;;5094672;28;20078;-84
2022/06/11 12:16:43;;;;;;;12.27;3.05;;;28.70;1.00;;;;;;5078453;28;20040;-84
2022/06/11 12:19:26;;;;;;;14.27;2.33;;;28.80;1.00;;;;;;5059816;28;20076;-84
2022/06/11 12:22:09;;;;;;;10.98;2.70;;;29.30;1.00;;;;;;5082565;28;20075;-84
2022/06/11 12:24:43;;;;;;;11.43;3.20;;;29.40;1.00;;;;;;5097413;28;20044;-84
2022/06/11 12:27:31;;;;;;;9.02;2.13;;;29.80;1.00;;;;;;5097051;28;20041;-84
2022/06/11 12:30:03;;;;;;;12.70;3.45;;;29.70;1.00;;;;;;5079557;28;20051;-84
2022/06/11 12:32:30;;;;;;;9.35;3.45;;;29.80;1.00;;;;;;5086772;28;20045;-84
2022/06/11 12:34:59;;;;;;;14.95;3.17;;;30.10;1.00;;;;;;5077422;28;20032;-84
2022/06/11 12:37:43;;;;;;;12.95;3.40;;;30.50;1.00;;;;;;5077814;28;20404;-84
2022/06/11 12:40:25;;;;;;;8.48;2.53;;;30.40;1.00;;;;;;5077333;28;20041;-83
2022/06/11 12:43:02;;;;;;;11.10;2.55;;;29.60;1.00;;;;;;5076429;28;20074;-84
2022/06/11 12:45:44;;;;;;;13.38;2.28;;;29.70;1.00;;;;;;5074673;28;20056;-84
2022/06/11 12:48:22;;;;;;;12.43;2.83;;;29.80;1.00;;;;;;5077028;28;20450;-84
2022/06/11 12:51:10;;;;;;;11.95;2.90;;;30.50;1.00;;;;;;5076993;28;20062;-84
2022/06/11 12:53:41;;;;;;;12.55;2.35;;;30.40;1.00;;;;;;5076073;28;20041;-84
2022/06/11 12:56:28;;;;;;;12.20;2.55;;;29.90;1.00;;;;;;5076419;28;20048;-84
2022/06/11 12:59:21;;;;;;;7.28;1.92;;;29.30;1.00;;;;;;5076933;28;20044;-83
2022/06/11 13:02:11;;;;;;;10.27;2.60;;;29.90;1.00;;;;;;5077039;28;20028;-84
2022/06/11 13:05:12;;;;;;;10.88;2.47;;;30.50;1.00;;;;;;5077832;28;20044;-84
2022/06/11 13:08:06;;;;;;;9.80;2.25;;;30.40;1.00;;;;;;5077235;28;20055;-81
2022/06/11 13:10:39;;;;;;;7.38;1.75;;;30.40;1.00;;;;;;5060070;28;20048;-84
2022/06/11 13:13:18;;;;;;;9.32;2.38;;;30.30;1.00;;;;;;5076574;28;20051;-84
2022/06/11 13:15:52;;;;;;;9.02;2.25;;;30.50;1.00;;;;;;5077108;28;20045;-83